Terminal Aerodrome Forecast
Issued by NWS Bismarck, ND

Home | Current Version | Previous Version | Text Only | Print | Product List | Glossary Off
Versions: 1 2 3 4 5 6 7 8 9 10 11 12 13 14 15 16 17 18 19 20

000
FTUS43 KBIS 180536
TAFISN
TAF
KISN 180536Z 1806/1906 06007KT P6SM VCSH BKN060
     FM180700 06007KT 1 1/2SM -SN BR BKN035
     FM181200 03010KT 1SM -SN BR OVC025
     FM181500 02009KT 1SM BR VCSH BKN015
     FM181700 01010KT P6SM BKN035=

USA.gov is the U.S. government's official web portal to all federal, state and local government web resources and services.